Time;durP1;ratioP1;P1;durP2;ratioP2;P2;SDS_P1;SDS_P2;PMS_P1;PMS_P2;Temp;Humidity;BMP_temperature;BMP_pressure;BME280_temperature;BME280_humidity;BME280_pressure;Samples;Min_cycle;Max_cycle;Signal;HPM_P1;HPM_P2
2024/04/02 00:01:09;;;;;;;3.23;1.07;;;11.00;99.90;;;;;;5033290;28;20425;-72
2024/04/02 00:03:35;;;;;;;1.87;1.10;;;11.00;99.90;;;;;;5036340;28;20421;-75
2024/04/02 00:06:01;;;;;;;1.53;0.90;;;10.90;99.90;;;;;;5067881;28;20822;-72
2024/04/02 00:08:31;;;;;;;1.90;1.10;;;10.90;99.90;;;;;;5038222;28;20544;-69
2024/04/02 00:11:04;;;;;;;1.47;1.03;;;11.00;99.90;;;;;;5038330;28;20428;-72
2024/04/02 00:13:30;;;;;;;1.00;0.90;;;11.00;99.90;;;;;;5038353;28;20528;-71
2024/04/02 00:15:56;;;;;;;1.77;0.90;;;11.00;99.90;;;;;;5038464;28;20482;-69
2024/04/02 00:18:24;;;;;;;1.63;1.10;;;10.90;99.90;;;;;;5038051;28;20460;-73
2024/04/02 00:20:50;;;;;;;1.90;1.10;;;11.00;99.90;;;;;;5038846;28;20456;-72
2024/04/02 00:23:15;;;;;;;1.47;1.03;;;10.90;99.90;;;;;;5038567;28;20445;-74
2024/04/02 00:25:43;;;;;;;2.93;1.00;;;10.90;99.90;;;;;;5038482;28;20428;-69
2024/04/02 00:28:11;;;;;;;3.67;0.90;;;11.00;99.90;;;;;;5037204;28;20194;-72
2024/04/02 00:30:38;;;;;;;1.50;1.10;;;10.90;99.90;;;;;;5038134;28;20479;-74
2024/04/02 00:33:04;;;;;;;1.30;0.77;;;11.00;99.90;;;;;;5043416;28;20416;-72
2024/04/02 00:35:29;;;;;;;1.40;0.87;;;11.00;99.90;;;;;;5038012;28;20434;-73
2024/04/02 00:37:56;;;;;;;1.13;0.83;;;11.00;99.90;;;;;;5069716;28;20610;-72
2024/04/02 00:40:22;;;;;;;2.20;0.80;;;11.00;99.90;;;;;;5053633;28;20738;-71
2024/04/02 00:42:48;;;;;;;2.00;0.63;;;10.90;99.90;;;;;;5038624;28;20428;-71
2024/04/02 00:45:15;;;;;;;2.10;0.67;;;11.00;99.90;;;;;;5038446;28;20432;-69
2024/04/02 00:47:41;;;;;;;2.53;0.90;;;10.90;99.90;;;;;;5038308;28;20432;-72
2024/04/02 00:50:09;;;;;;;1.53;0.93;;;10.90;99.90;;;;;;5037799;28;20433;-71
2024/04/02 00:52:35;;;;;;;0.97;0.80;;;11.00;99.90;;;;;;5037942;28;20428;-72
2024/04/02 00:55:02;;;;;;;1.30;0.70;;;10.90;99.90;;;;;;5037435;28;20431;-72
2024/04/02 00:57:28;;;;;;;1.00;0.90;;;10.90;99.90;;;;;;5037883;28;20971;-72
2024/04/02 00:59:54;;;;;;;2.50;1.20;;;10.90;99.90;;;;;;5037928;28;20470;-72
2024/04/02 01:02:20;;;;;;;1.40;0.93;;;10.90;99.90;;;;;;5037795;28;20548;-70
2024/04/02 01:04:47;;;;;;;2.10;0.90;;;10.90;99.90;;;;;;5037860;28;20524;-71
2024/04/02 01:07:14;;;;;;;3.13;0.90;;;10.80;99.90;;;;;;5035914;28;20448;-73
2024/04/02 01:09:42;;;;;;;2.33;0.87;;;10.80;99.90;;;;;;5036365;28;20429;-71
2024/04/02 01:12:08;;;;;;;1.97;0.80;;;10.70;99.90;;;;;;5035364;28;21136;-74
2024/04/02 01:14:41;;;;;;;4.07;0.90;;;10.70;99.90;;;;;;5036016;28;20850;-74
2024/04/02 01:17:07;;;;;;;3.80;0.93;;;10.60;99.90;;;;;;5035718;28;20429;-71
2024/04/02 01:19:33;;;;;;;1.50;0.73;;;10.60;99.90;;;;;;5051378;28;20479;-72
2024/04/02 01:21:59;;;;;;;2.03;0.93;;;10.60;99.90;;;;;;5035327;28;20491;-69
2024/04/02 01:24:26;;;;;;;1.37;0.70;;;10.60;99.90;;;;;;5035907;28;20268;-75
2024/04/02 01:26:52;;;;;;;4.00;1.10;;;10.60;99.90;;;;;;5035892;28;20184;-72
2024/04/02 01:29:17;;;;;;;2.27;0.90;;;10.60;99.90;;;;;;5036396;28;20436;-72
2024/04/02 01:31:43;;;;;;;1.50;1.07;;;10.50;99.90;;;;;;5036040;28;20185;-73
2024/04/02 01:34:09;;;;;;;1.60;0.63;;;10.50;99.90;;;;;;5035648;28;20193;-69
2024/04/02 01:36:35;;;;;;;5.40;1.13;;;10.50;99.90;;;;;;5035811;28;20185;-73
2024/04/02 01:39:00;;;;;;;1.70;1.17;;;10.50;99.90;;;;;;5034348;28;20461;-70
2024/04/02 01:41:26;;;;;;;1.33;0.97;;;10.40;99.90;;;;;;5035741;28;20320;-72
2024/04/02 01:43:52;;;;;;;2.47;0.97;;;10.40;99.90;;;;;;5035420;28;20178;-72
2024/04/02 01:46:18;;;;;;;1.20;0.90;;;10.30;99.90;;;;;;5035764;28;20592;-74
2024/04/02 01:48:44;;;;;;;2.87;1.00;;;10.30;99.90;;;;;;5035582;28;20184;-72
2024/04/02 01:51:10;;;;;;;1.50;0.80;;;10.30;99.90;;;;;;5034990;28;21088;-75
2024/04/02 01:53:35;;;;;;;1.50;1.23;;;10.30;99.90;;;;;;5050181;28;20194;-69
2024/04/02 01:56:03;;;;;;;1.30;1.00;;;10.30;99.90;;;;;;5034634;28;20580;-69
2024/04/02 01:58:29;;;;;;;3.40;1.00;;;10.30;99.90;;;;;;5035214;28;20283;-71
2024/04/02 02:00:55;;;;;;;2.10;0.90;;;10.30;99.90;;;;;;5035061;28;20428;-72
2024/04/02 02:03:20;;;;;;;1.20;0.70;;;10.20;99.90;;;;;;5035988;28;20186;-74
2024/04/02 02:05:47;;;;;;;2.33;0.80;;;10.20;99.90;;;;;;5028537;28;1097740;-72
2024/04/02 02:08:12;;;;;;;1.83;0.97;;;10.20;99.90;;;;;;5068536;28;20183;-75
2024/04/02 02:10:38;;;;;;;3.00;1.20;;;10.20;99.90;;;;;;5036614;28;20445;-71
2024/04/02 02:13:05;;;;;;;1.60;0.90;;;10.20;99.90;;;;;;5034698;28;20183;-73
2024/04/02 02:15:31;;;;;;;2.50;1.63;;;10.20;99.90;;;;;;5035838;28;20289;-73
2024/04/02 02:17:57;;;;;;;2.03;1.03;;;10.20;99.90;;;;;;5035067;28;20459;-74
2024/04/02 02:20:22;;;;;;;2.50;1.63;;;10.30;99.90;;;;;;5036308;28;20424;-74
2024/04/02 02:22:48;;;;;;;2.43;1.50;;;10.30;99.90;;;;;;5035744;28;20325;-70
2024/04/02 02:25:14;;;;;;;1.90;1.23;;;10.30;99.90;;;;;;5035937;28;20549;-71
2024/04/02 02:27:42;;;;;;;2.20;1.07;;;10.30;99.90;;;;;;5035505;28;20222;-71
2024/04/02 02:30:08;;;;;;;3.80;1.50;;;10.30;99.90;;;;;;5036128;28;20243;-71
2024/04/02 02:32:34;;;;;;;1.40;0.80;;;10.30;99.90;;;;;;5035887;28;20424;-73
2024/04/02 02:35:04;;;;;;;1.23;0.70;;;10.30;99.90;;;;;;5034954;28;20468;-71
2024/04/02 02:37:30;;;;;;;1.90;1.13;;;10.20;99.90;;;;;;5035848;28;20429;-70
2024/04/02 02:39:56;;;;;;;1.97;1.70;;;10.20;99.90;;;;;;5035133;28;20432;-74
2024/04/02 02:42:23;;;;;;;2.30;1.00;;;10.20;99.90;;;;;;5035517;28;20420;-71
2024/04/02 02:44:50;;;;;;;1.50;0.90;;;10.20;99.90;;;;;;5034779;28;20433;-76
2024/04/02 02:47:15;;;;;;;2.97;1.07;;;10.20;99.90;;;;;;5035725;28;20425;-74
2024/04/02 02:49:41;;;;;;;4.27;1.00;;;10.20;99.90;;;;;;5033947;28;20424;-73
2024/04/02 02:52:07;;;;;;;0.80;0.70;;;10.10;99.90;;;;;;5035479;28;20551;-73
2024/04/02 02:54:32;;;;;;;4.33;1.10;;;10.10;99.90;;;;;;5035451;28;20178;-72
2024/04/02 02:56:58;;;;;;;2.00;1.00;;;10.10;99.90;;;;;;5034669;28;20178;-72
2024/04/02 02:59:24;;;;;;;1.00;0.83;;;10.10;99.90;;;;;;5034891;28;20210;-72
2024/04/02 03:01:49;;;;;;;2.80;1.80;;;10.10;99.90;;;;;;5034965;28;20245;-74
2024/04/02 03:04:15;;;;;;;3.53;1.43;;;10.10;99.90;;;;;;5035475;28;20197;-74
2024/04/02 03:06:41;;;;;;;2.50;0.97;;;10.00;99.90;;;;;;5034908;28;20198;-72
2024/04/02 03:09:06;;;;;;;5.63;1.20;;;10.10;99.90;;;;;;5035144;28;20288;-72
2024/04/02 03:11:32;;;;;;;1.20;1.10;;;10.00;99.90;;;;;;5035100;28;20208;-70
2024/04/02 03:14:00;;;;;;;2.17;0.97;;;10.00;99.90;;;;;;5034595;28;20188;-73
2024/04/02 03:16:26;;;;;;;1.87;0.73;;;10.00;99.90;;;;;;5035652;28;20755;-71
2024/04/02 03:18:51;;;;;;;2.87;1.20;;;10.00;99.90;;;;;;5034425;28;20490;-72
2024/04/02 03:21:17;;;;;;;2.53;1.00;;;10.10;99.90;;;;;;5035141;28;20967;-73
2024/04/02 03:23:43;;;;;;;2.30;0.93;;;10.10;99.90;;;;;;5034671;28;20181;-68
2024/04/02 03:26:09;;;;;;;1.27;0.87;;;10.10;99.90;;;;;;5035040;28;20752;-75
2024/04/02 03:28:34;;;;;;;2.10;1.30;;;10.10;99.90;;;;;;5034874;28;20189;-71
2024/04/02 03:31:01;;;;;;;2.57;1.20;;;10.10;99.90;;;;;;5034528;28;20189;-72
2024/04/02 03:33:28;;;;;;;3.00;1.23;;;10.20;99.90;;;;;;5035469;28;20253;-71
2024/04/02 03:35:53;;;;;;;3.20;1.30;;;10.20;99.90;;;;;;5034487;28;20980;-74
2024/04/02 03:38:19;;;;;;;4.33;1.30;;;10.10;99.90;;;;;;5034756;28;20471;-72
2024/04/02 03:40:47;;;;;;;1.27;1.00;;;10.10;99.90;;;;;;5034042;28;20242;-72
2024/04/02 03:43:13;;;;;;;2.30;1.10;;;10.10;99.90;;;;;;5034630;28;20461;-71
2024/04/02 03:45:40;;;;;;;3.33;1.10;;;10.10;99.90;;;;;;5034345;28;20471;-71
2024/04/02 03:48:06;;;;;;;1.53;0.97;;;10.10;99.90;;;;;;5034925;28;20464;-71
2024/04/02 03:50:33;;;;;;;1.30;1.00;;;10.20;99.90;;;;;;5034432;28;20424;-70
2024/04/02 03:52:59;;;;;;;3.57;1.33;;;10.10;99.90;;;;;;5034620;28;20424;-71
2024/04/02 03:55:24;;;;;;;2.60;1.47;;;10.10;99.90;;;;;;5035306;28;20428;-73
2024/04/02 03:57:50;;;;;;;1.50;1.40;;;10.10;99.90;;;;;;5034249;28;20260;-72
2024/04/02 04:00:16;;;;;;;2.03;1.10;;;10.00;99.90;;;;;;5035060;28;20520;-69
2024/04/02 04:02:41;;;;;;;1.30;1.00;;;10.10;99.90;;;;;;5034033;28;20321;-71
2024/04/02 04:05:07;;;;;;;2.23;1.13;;;10.00;99.90;;;;;;5035134;28;20283;-71
2024/04/02 04:07:33;;;;;;;3.03;1.13;;;10.00;99.90;;;;;;5034112;28;20219;-74
2024/04/02 04:09:58;;;;;;;3.33;1.10;;;10.00;99.90;;;;;;5034203;28;20192;-72
2024/04/02 04:12:24;;;;;;;1.57;1.20;;;9.90;99.90;;;;;;5034855;28;20269;-72
2024/04/02 04:14:50;;;;;;;2.83;1.20;;;9.90;99.90;;;;;;5034462;28;20190;-71
2024/04/02 04:17:16;;;;;;;1.20;0.90;;;10.00;99.90;;;;;;5034797;28;20649;-73
2024/04/02 04:19:42;;;;;;;2.93;1.40;;;10.00;99.90;;;;;;5034048;28;20437;-72
2024/04/02 04:22:07;;;;;;;1.70;1.23;;;10.00;99.90;;;;;;5034801;28;20731;-73
2024/04/02 04:24:33;;;;;;;1.80;1.27;;;10.00;99.90;;;;;;5066039;28;20193;-73
2024/04/02 04:26:59;;;;;;;2.20;1.17;;;10.10;99.90;;;;;;5034360;28;20232;-73
2024/04/02 04:29:24;;;;;;;1.53;1.00;;;10.10;99.90;;;;;;5034716;28;20257;-68
2024/04/02 04:31:50;;;;;;;1.80;1.40;;;10.10;99.90;;;;;;5033857;28;20304;-72
2024/04/02 04:34:17;;;;;;;5.07;1.50;;;10.10;99.90;;;;;;5034872;28;20189;-71
2024/04/02 04:36:43;;;;;;;1.83;1.30;;;10.10;99.90;;;;;;5034067;28;20188;-71
2024/04/02 04:39:10;;;;;;;4.00;1.20;;;10.10;99.90;;;;;;5035129;28;20467;-72
2024/04/02 04:41:35;;;;;;;2.50;1.10;;;10.10;99.90;;;;;;5033460;28;20194;-73
2024/04/02 04:44:01;;;;;;;2.70;1.23;;;10.10;99.90;;;;;;5032812;28;20440;-71
2024/04/02 04:46:27;;;;;;;2.43;1.30;;;10.10;99.90;;;;;;5034927;28;20178;-69
2024/04/02 04:48:53;;;;;;;2.33;1.20;;;10.10;99.90;;;;;;5034163;28;20605;-69
2024/04/02 04:51:19;;;;;;;2.23;1.13;;;10.10;99.90;;;;;;5038118;28;20436;-72
2024/04/02 04:53:44;;;;;;;4.10;2.33;;;10.10;99.90;;;;;;5037523;28;20428;-74
2024/04/02 04:56:10;;;;;;;3.50;1.30;;;10.10;99.90;;;;;;5038153;28;20920;-72
2024/04/02 04:58:36;;;;;;;2.13;1.30;;;10.10;99.90;;;;;;5037021;28;20259;-69
2024/04/02 05:01:03;;;;;;;4.03;1.70;;;10.10;99.90;;;;;;5037985;28;20181;-73
2024/04/02 05:03:29;;;;;;;2.33;1.53;;;10.10;99.90;;;;;;5038222;28;20429;-70
2024/04/02 05:06:08;;;;;;;2.40;1.53;;;10.00;99.90;;;;;;5037751;28;20432;-70
2024/04/02 05:08:35;;;;;;;2.40;1.07;;;10.00;99.90;;;;;;5037967;28;20424;-73
2024/04/02 05:11:06;;;;;;;3.37;1.87;;;10.10;99.90;;;;;;5037578;28;20428;-70
2024/04/02 05:13:33;;;;;;;1.60;1.20;;;10.10;99.90;;;;;;5037592;28;20437;-73
2024/04/02 05:15:58;;;;;;;2.10;1.20;;;10.10;99.90;;;;;;5036937;28;20826;-71
2024/04/02 05:18:24;;;;;;;1.83;1.20;;;10.10;99.90;;;;;;5037817;28;20513;-70
2024/04/02 05:20:50;;;;;;;1.30;1.20;;;10.20;99.90;;;;;;5036968;28;20191;-73
2024/04/02 05:23:16;;;;;;;4.20;1.90;;;10.20;99.90;;;;;;5037969;28;20190;-70
2024/04/02 05:25:42;;;;;;;2.10;1.63;;;10.20;99.90;;;;;;5036803;28;20178;-72
2024/04/02 05:28:08;;;;;;;1.80;1.30;;;10.20;99.90;;;;;;5037347;28;20201;-73
2024/04/02 05:30:37;;;;;;;2.53;1.30;;;10.20;99.90;;;;;;5036301;28;20987;-69
2024/04/02 05:33:03;;;;;;;2.50;1.70;;;10.10;99.90;;;;;;5036138;28;20495;-71
2024/04/02 05:35:30;;;;;;;2.83;1.70;;;10.10;99.90;;;;;;5036987;28;21012;-71
2024/04/02 05:37:55;;;;;;;2.17;1.70;;;10.10;99.90;;;;;;5037285;28;21038;-73
2024/04/02 05:40:22;;;;;;;1.87;1.33;;;10.10;99.90;;;;;;5036781;28;20435;-70
2024/04/02 05:42:48;;;;;;;2.50;1.67;;;10.00;99.90;;;;;;5036630;28;20652;-70
2024/04/02 05:45:15;;;;;;;2.77;1.43;;;9.90;99.90;;;;;;5037148;28;20436;-71
2024/04/02 05:47:41;;;;;;;2.10;1.90;;;9.90;99.90;;;;;;5035215;28;20462;-71
2024/04/02 05:50:07;;;;;;;2.17;1.73;;;9.90;99.90;;;;;;5036137;28;20527;-72
2024/04/02 05:52:33;;;;;;;5.10;1.57;;;9.90;99.90;;;;;;5035464;28;20436;-68
2024/04/02 05:54:58;;;;;;;1.60;1.50;;;9.90;99.90;;;;;;5034470;28;20790;-72
2024/04/02 05:57:24;;;;;;;2.90;1.50;;;9.90;99.90;;;;;;5068554;28;20185;-72
2024/04/02 05:59:50;;;;;;;4.17;2.30;;;9.90;99.90;;;;;;5035554;28;20224;-73
2024/04/02 06:02:17;;;;;;;3.13;1.50;;;9.90;99.90;;;;;;5033397;28;20668;-73
2024/04/02 06:04:43;;;;;;;2.50;1.60;;;9.90;99.90;;;;;;5035217;28;20237;-72
2024/04/02 06:07:08;;;;;;;2.33;1.57;;;9.90;99.90;;;;;;5035669;28;20437;-73
2024/04/02 06:09:35;;;;;;;3.30;1.67;;;9.90;99.90;;;;;;5034089;28;20987;-71
2024/04/02 06:12:00;;;;;;;5.13;2.30;;;9.90;99.90;;;;;;5034957;28;20239;-72
2024/04/02 06:14:26;;;;;;;1.83;1.53;;;9.80;99.90;;;;;;5036023;28;20424;-70
2024/04/02 06:16:52;;;;;;;2.83;1.90;;;9.80;99.90;;;;;;5036592;28;20194;-70
2024/04/02 06:19:17;;;;;;;3.77;2.40;;;9.90;99.90;;;;;;5035954;28;20225;-72
2024/04/02 06:21:44;;;;;;;4.40;1.63;;;9.90;99.90;;;;;;5036300;28;20182;-71
2024/04/02 06:24:10;;;;;;;2.90;1.83;;;9.90;99.90;;;;;;5036828;28;20246;-69
2024/04/02 06:26:36;;;;;;;2.70;1.90;;;9.90;99.90;;;;;;5035298;28;20437;-69
2024/04/02 06:29:01;;;;;;;2.30;1.70;;;9.90;99.90;;;;;;5036559;28;20182;-71
2024/04/02 06:31:27;;;;;;;3.13;1.83;;;10.00;99.90;;;;;;5036019;28;20185;-68
2024/04/02 06:33:52;;;;;;;2.80;1.77;;;10.00;99.90;;;;;;5036268;28;20183;-70
2024/04/02 06:36:19;;;;;;;3.53;1.97;;;10.00;99.90;;;;;;5036667;28;20190;-73
2024/04/02 06:38:44;;;;;;;2.50;1.80;;;10.10;99.90;;;;;;5035609;28;20216;-72
2024/04/02 06:41:10;;;;;;;5.60;1.80;;;10.10;99.90;;;;;;5036316;28;20976;-70
2024/04/02 06:43:36;;;;;;;2.77;1.70;;;10.10;99.90;;;;;;5034897;28;20640;-73
2024/04/02 06:46:02;;;;;;;4.33;1.83;;;10.10;99.90;;;;;;5041987;28;20269;-73
2024/04/02 06:48:28;;;;;;;3.27;1.40;;;10.10;99.90;;;;;;5036172;28;20185;-72
2024/04/02 06:51:04;;;;;;;6.57;2.00;;;10.10;99.90;;;;;;5037385;28;20254;-70
2024/04/02 06:53:33;;;;;;;3.50;1.70;;;10.20;99.90;;;;;;5036561;28;20507;-70
2024/04/02 06:55:59;;;;;;;2.30;1.90;;;10.30;99.90;;;;;;5035947;28;20446;-70
2024/04/02 06:58:25;;;;;;;4.97;2.50;;;10.30;99.90;;;;;;5048836;28;20452;-67
2024/04/02 07:00:51;;;;;;;2.30;1.73;;;10.30;99.90;;;;;;5035795;28;21056;-73
2024/04/02 07:03:19;;;;;;;5.00;2.30;;;10.30;99.90;;;;;;5035825;28;20441;-70
2024/04/02 07:05:46;;;;;;;6.57;2.20;;;10.30;99.90;;;;;;5035654;28;20436;-72
2024/04/02 07:08:13;;;;;;;6.83;2.33;;;10.30;99.90;;;;;;5035462;28;20836;-73
2024/04/02 07:10:41;;;;;;;3.53;2.30;;;10.30;99.90;;;;;;5035133;28;20482;-73
2024/04/02 07:13:07;;;;;;;12.43;2.50;;;10.30;99.90;;;;;;5035624;28;20559;-72
2024/04/02 07:15:33;;;;;;;4.17;2.30;;;10.30;99.90;;;;;;5034676;28;20451;-72
2024/04/02 07:17:59;;;;;;;4.50;1.80;;;10.40;99.90;;;;;;5035452;28;20471;-71
2024/04/02 07:20:24;;;;;;;4.00;2.00;;;10.40;99.90;;;;;;5035213;28;20285;-72
2024/04/02 07:22:50;;;;;;;6.80;2.13;;;10.50;99.90;;;;;;5035571;28;20189;-73
2024/04/02 07:25:16;;;;;;;3.27;2.03;;;10.50;99.90;;;;;;5035560;28;20182;-68
2024/04/02 07:27:42;;;;;;;5.70;2.37;;;10.60;99.90;;;;;;5034899;28;20190;-68
2024/04/02 07:30:08;;;;;;;3.93;1.93;;;10.60;99.90;;;;;;5035503;28;20194;-73
2024/04/02 07:32:34;;;;;;;4.50;2.37;;;10.60;99.90;;;;;;5034267;28;20429;-75
2024/04/02 07:34:59;;;;;;;5.40;2.00;;;10.70;99.90;;;;;;5035767;28;20452;-67
2024/04/02 07:37:26;;;;;;;5.10;2.20;;;10.70;99.90;;;;;;5035741;28;20432;-69
2024/04/02 07:39:52;;;;;;;3.60;2.00;;;10.70;99.90;;;;;;5035016;28;20740;-70
2024/04/02 07:42:18;;;;;;;3.93;1.80;;;10.80;99.90;;;;;;5034893;28;20575;-72
2024/04/02 07:44:44;;;;;;;14.63;3.90;;;10.80;99.90;;;;;;5035036;28;20536;-70
2024/04/02 07:47:10;;;;;;;3.50;2.00;;;10.80;99.90;;;;;;5035027;28;20435;-70
2024/04/02 07:49:36;;;;;;;5.60;1.93;;;10.80;99.90;;;;;;5033693;28;20713;-69
2024/04/02 07:52:02;;;;;;;3.53;2.30;;;10.80;99.90;;;;;;5035522;28;20288;-70
2024/04/02 07:54:28;;;;;;;4.00;2.43;;;10.90;99.90;;;;;;5033509;28;20428;-69
2024/04/02 07:56:53;;;;;;;7.40;1.90;;;10.90;99.90;;;;;;5035127;28;20572;-69
2024/04/02 07:59:20;;;;;;;7.63;1.90;;;10.90;99.90;;;;;;5034393;28;20213;-72
2024/04/02 08:01:47;;;;;;;4.97;2.73;;;11.00;99.90;;;;;;5034217;28;20265;-71
2024/04/02 08:04:12;;;;;;;5.43;2.40;;;11.00;99.90;;;;;;5035014;28;20428;-73
2024/04/02 08:06:38;;;;;;;3.50;1.83;;;11.00;99.90;;;;;;5033933;28;20451;-72
2024/04/02 08:09:05;;;;;;;4.63;2.00;;;11.00;99.90;;;;;;5034656;28;20533;-70
2024/04/02 08:11:31;;;;;;;2.60;1.50;;;11.00;99.90;;;;;;5034177;28;21003;-68
2024/04/02 08:13:56;;;;;;;6.37;1.70;;;11.00;99.90;;;;;;5034902;28;20428;-72
2024/04/02 08:16:24;;;;;;;8.83;2.50;;;11.00;99.90;;;;;;5034155;28;21650;-71
2024/04/02 08:18:49;;;;;;;6.10;1.70;;;11.00;99.90;;;;;;5033625;28;20225;-70
2024/04/02 08:21:15;;;;;;;4.30;1.90;;;11.10;99.90;;;;;;5033950;28;20435;-71
2024/04/02 08:23:41;;;;;;;5.13;1.70;;;11.00;99.90;;;;;;5032980;28;20194;-71
2024/04/02 08:26:07;;;;;;;7.80;1.90;;;11.10;99.90;;;;;;5037804;28;20652;-67
2024/04/02 08:28:33;;;;;;;8.80;1.63;;;11.00;99.90;;;;;;5036769;28;20194;-71
2024/04/02 08:30:59;;;;;;;7.23;1.83;;;11.10;99.90;;;;;;5037769;28;20923;-67
2024/04/02 08:33:26;;;;;;;7.43;2.27;;;11.00;99.90;;;;;;5036978;28;20485;-70
2024/04/02 08:35:52;;;;;;;11.90;1.80;;;11.00;99.90;;;;;;5037591;28;20449;-70
2024/04/02 08:38:18;;;;;;;7.30;3.00;;;11.00;99.90;;;;;;5037415;28;20475;-71
2024/04/02 08:40:55;;;;;;;6.73;4.57;;;11.00;99.90;;;;;;5037012;28;20791;-69
2024/04/02 08:43:22;;;;;;;4.00;1.50;;;11.00;99.90;;;;;;5037198;28;20432;-71
2024/04/02 08:45:48;;;;;;;6.13;1.70;;;10.90;99.90;;;;;;5035763;28;20431;-69
2024/04/02 08:48:18;;;;;;;8.47;2.27;;;11.00;99.90;;;;;;5037526;28;21022;-72
2024/04/02 08:50:44;;;;;;;4.53;1.70;;;10.90;99.90;;;;;;5037119;28;20421;-71
2024/04/02 08:53:09;;;;;;;3.83;1.80;;;10.90;99.90;;;;;;5037848;28;20435;-73
2024/04/02 08:55:36;;;;;;;4.80;1.90;;;11.00;99.90;;;;;;5036331;28;20876;-68
2024/04/02 08:58:05;;;;;;;4.53;1.53;;;11.10;99.90;;;;;;5036811;28;20214;-70
2024/04/02 09:00:31;;;;;;;6.27;1.50;;;11.10;99.90;;;;;;5018037;28;21172;-69
2024/04/02 09:02:57;;;;;;;5.00;1.87;;;11.10;99.90;;;;;;5035609;28;20420;-72
2024/04/02 09:05:23;;;;;;;3.80;1.77;;;11.20;99.90;;;;;;5036772;28;20241;-73
2024/04/02 09:07:50;;;;;;;5.30;1.60;;;11.20;99.90;;;;;;5036741;28;20427;-70
2024/04/02 09:10:16;;;;;;;4.53;2.07;;;11.20;99.90;;;;;;5036885;28;20457;-70
2024/04/02 09:12:41;;;;;;;5.13;1.67;;;11.30;99.90;;;;;;5037191;28;20943;-72
2024/04/02 09:15:07;;;;;;;6.70;2.10;;;11.30;99.90;;;;;;5036940;28;20532;-68
2024/04/02 09:17:36;;;;;;;6.33;2.00;;;11.40;99.90;;;;;;5034850;28;20572;-69
2024/04/02 09:20:03;;;;;;;9.47;2.73;;;11.40;99.90;;;;;;5036657;28;20193;-71
2024/04/02 09:22:29;;;;;;;2.40;1.30;;;11.40;99.90;;;;;;5036426;28;20432;-69
2024/04/02 09:24:55;;;;;;;4.13;1.53;;;11.40;99.90;;;;;;5036376;28;20429;-72
2024/04/02 09:27:21;;;;;;;3.33;1.30;;;11.30;99.90;;;;;;5036726;28;20439;-72
2024/04/02 09:29:47;;;;;;;4.93;1.40;;;11.40;99.90;;;;;;5036075;28;20922;-71
2024/04/02 09:32:17;;;;;;;4.97;1.40;;;11.40;99.90;;;;;;5036620;28;20559;-71
2024/04/02 09:34:45;;;;;;;6.40;1.60;;;11.50;99.90;;;;;;5036059;28;20418;-68
2024/04/02 09:37:23;;;;;;;5.20;1.60;;;11.50;99.90;;;;;;5037111;28;20439;-69
2024/04/02 09:39:52;;;;;;;4.63;1.47;;;11.50;99.90;;;;;;5036286;28;20491;-74
2024/04/02 09:42:20;;;;;;;3.67;1.43;;;11.50;99.90;;;;;;5036260;28;20475;-70
2024/04/02 09:44:49;;;;;;;6.80;1.67;;;11.50;99.90;;;;;;5036533;28;20783;-70
2024/04/02 09:47:18;;;;;;;5.67;1.70;;;11.60;99.90;;;;;;5036152;28;20434;-72
2024/04/02 09:49:44;;;;;;;6.53;2.10;;;11.60;99.90;;;;;;5036550;28;20436;-69
2024/04/02 09:52:10;;;;;;;5.60;2.10;;;11.60;99.90;;;;;;5036650;28;20436;-72
2024/04/02 09:54:36;;;;;;;2.90;1.37;;;11.70;99.90;;;;;;5035502;28;20413;-70
2024/04/02 09:57:03;;;;;;;7.00;1.73;;;11.80;99.90;;;;;;5034543;28;20801;-68
2024/04/02 09:59:29;;;;;;;5.03;1.50;;;11.80;99.90;;;;;;5035646;28;20851;-72
2024/04/02 10:01:56;;;;;;;3.60;2.00;;;11.80;99.90;;;;;;5036193;28;20438;-70
2024/04/02 10:04:22;;;;;;;4.80;1.50;;;11.80;99.90;;;;;;5035910;28;21294;-75
2024/04/02 10:06:52;;;;;;;4.10;1.67;;;11.90;99.90;;;;;;5036480;28;20466;-74
2024/04/02 10:09:18;;;;;;;4.60;1.60;;;11.90;99.90;;;;;;5035758;28;20519;-69
2024/04/02 10:11:48;;;;;;;7.87;1.70;;;11.90;99.90;;;;;;5036495;28;20418;-73
2024/04/02 10:14:16;;;;;;;3.00;1.43;;;11.90;99.90;;;;;;5035956;28;20437;-70
2024/04/02 10:16:42;;;;;;;3.30;1.40;;;11.80;99.90;;;;;;5035908;28;20432;-74
2024/04/02 10:19:13;;;;;;;3.93;1.50;;;11.90;99.90;;;;;;5035816;28;20464;-73
2024/04/02 10:21:39;;;;;;;3.03;1.57;;;11.80;99.90;;;;;;5035484;28;20420;-72
2024/04/02 10:24:06;;;;;;;3.10;1.37;;;11.80;99.90;;;;;;5036084;28;21158;-69
2024/04/02 10:26:32;;;;;;;5.80;2.27;;;11.80;99.90;;;;;;5035757;28;20416;-70
2024/04/02 10:28:59;;;;;;;4.87;1.40;;;11.90;99.90;;;;;;5035983;28;20417;-69
2024/04/02 10:31:42;;;;;;;4.03;1.27;;;12.00;99.90;;;;;;5035130;28;20543;-67
2024/04/02 10:34:11;;;;;;;4.77;1.23;;;11.90;99.90;;;;;;5035605;28;20424;-70
2024/04/02 10:36:39;;;;;;;5.30;1.83;;;12.00;99.90;;;;;;5035154;28;20424;-70
2024/04/02 10:39:09;;;;;;;4.23;1.10;;;12.00;99.90;;;;;;5035064;28;21265;-72
2024/04/02 10:41:40;;;;;;;3.97;1.23;;;12.00;99.90;;;;;;5033993;28;20828;-70
2024/04/02 10:44:06;;;;;;;3.40;1.30;;;12.00;99.90;;;;;;5035541;28;20433;-72
2024/04/02 10:46:32;;;;;;;3.73;1.10;;;12.00;99.90;;;;;;5034890;28;20954;-70
2024/04/02 10:48:59;;;;;;;2.40;1.03;;;12.00;99.90;;;;;;5035392;28;20428;-73
2024/04/02 10:51:27;;;;;;;2.10;1.30;;;12.20;99.90;;;;;;5035144;28;20887;-69
2024/04/02 10:53:56;;;;;;;2.37;1.20;;;12.20;99.90;;;;;;5035737;28;20449;-70
2024/04/02 10:56:27;;;;;;;3.80;1.33;;;12.20;99.90;;;;;;5034795;28;20440;-70
2024/04/02 10:58:54;;;;;;;4.20;2.03;;;12.30;99.90;;;;;;5035595;28;20457;-71
2024/04/02 11:01:20;;;;;;;4.93;1.70;;;12.40;99.90;;;;;;5034928;28;20436;-74
2024/04/02 11:03:50;;;;;;;4.30;1.17;;;12.50;99.90;;;;;;5034179;28;20432;-75
2024/04/02 11:06:17;;;;;;;2.53;1.30;;;12.60;99.90;;;;;;5035146;28;20449;-74
2024/04/02 11:08:44;;;;;;;4.20;1.50;;;12.60;99.90;;;;;;5035432;28;20432;-70
2024/04/02 11:11:24;;;;;;;4.60;1.70;;;12.60;99.90;;;;;;5049974;28;20441;-72
2024/04/02 11:13:51;;;;;;;2.50;1.30;;;12.60;99.90;;;;;;5067394;28;20432;-72
2024/04/02 11:16:17;;;;;;;3.60;1.33;;;12.70;99.90;;;;;;5034485;28;20452;-73
2024/04/02 11:18:44;;;;;;;4.43;1.00;;;12.90;99.90;;;;;;5035230;28;21197;-73
2024/04/02 11:21:17;;;;;;;3.27;1.33;;;12.90;99.90;;;;;;5035300;28;20439;-71
2024/04/02 11:26:28;;;;;;;6.10;1.43;;;13.00;99.90;;;;;;5034422;28;20931;-71
2024/04/02 11:29:04;;;;;;;2.73;1.00;;;13.10;99.90;;;;;;5035623;28;20534;-74
2024/04/02 11:31:29;;;;;;;3.53;1.53;;;13.10;99.90;;;;;;5033739;28;20182;-69
2024/04/02 11:33:55;;;;;;;2.53;1.27;;;13.10;99.90;;;;;;5034988;28;20485;-71
2024/04/02 11:36:21;;;;;;;2.00;1.10;;;13.00;99.90;;;;;;5034814;28;20539;-73
2024/04/02 11:38:46;;;;;;;4.57;1.40;;;13.00;99.90;;;;;;5034785;28;20214;-71
2024/04/02 11:41:14;;;;;;;3.27;1.23;;;12.90;99.90;;;;;;5034669;28;20274;-72
2024/04/02 11:43:40;;;;;;;7.83;2.10;;;12.90;99.90;;;;;;5034996;28;20185;-69
2024/04/02 11:46:06;;;;;;;2.10;1.13;;;12.80;99.90;;;;;;5033130;28;20436;-70
2024/04/02 11:48:31;;;;;;;5.70;1.40;;;12.80;99.90;;;;;;5034901;28;20675;-69
2024/04/02 11:50:57;;;;;;;6.97;1.73;;;12.80;99.90;;;;;;5034866;28;20214;-74
2024/04/02 11:53:23;;;;;;;4.37;1.53;;;12.80;99.90;;;;;;5066511;28;20655;-72
2024/04/02 11:55:52;;;;;;;4.40;1.30;;;12.80;99.90;;;;;;5034793;28;20420;-70
2024/04/02 12:01:05;;;;;;;4.23;1.27;;;12.70;99.90;;;;;;5038648;28;20507;-73
2024/04/02 12:03:30;;;;;;;10.60;1.30;;;12.70;99.90;;;;;;5037875;28;20432;-70
2024/04/02 12:05:56;;;;;;;5.10;1.07;;;12.60;99.90;;;;;;5038966;28;20447;-73
2024/04/02 12:08:23;;;;;;;2.80;1.33;;;12.50;99.90;;;;;;5038748;28;20247;-70
2024/04/02 12:10:49;;;;;;;4.23;1.20;;;12.60;99.90;;;;;;5038308;28;20185;-71
2024/04/02 12:13:14;;;;;;;3.13;1.00;;;12.60;99.90;;;;;;5038618;28;20459;-71
2024/04/02 12:15:40;;;;;;;2.30;1.20;;;12.60;99.90;;;;;;5038755;28;20186;-70
2024/04/02 12:18:06;;;;;;;2.80;0.80;;;12.60;99.90;;;;;;5037772;28;20218;-71
2024/04/02 12:20:31;;;;;;;1.60;1.00;;;12.50;99.90;;;;;;5044265;28;20188;-73
2024/04/02 12:22:57;;;;;;;2.00;0.93;;;12.50;99.90;;;;;;5038416;28;20182;-69
2024/04/02 12:25:23;;;;;;;1.80;0.80;;;12.40;99.90;;;;;;5035670;28;20996;-74
2024/04/02 12:27:56;;;;;;;3.30;0.70;;;12.30;99.90;;;;;;5038716;28;20798;-67
2024/04/02 12:30:22;;;;;;;1.30;0.80;;;12.30;99.90;;;;;;5038195;28;20780;-70
2024/04/02 12:32:48;;;;;;;1.80;0.90;;;12.30;99.90;;;;;;5038084;28;20441;-71
2024/04/02 12:35:17;;;;;;;1.47;1.27;;;12.30;99.90;;;;;;5038030;28;20283;-70
2024/04/02 12:37:43;;;;;;;4.00;1.00;;;12.30;99.90;;;;;;5039567;28;20483;-68
2024/04/02 12:40:12;;;;;;;2.83;1.03;;;12.30;99.90;;;;;;5037758;28;20436;-70
2024/04/02 12:42:37;;;;;;;4.50;1.20;;;12.30;99.90;;;;;;5038830;28;20504;-73
2024/04/02 12:45:07;;;;;;;1.23;1.10;;;12.30;99.90;;;;;;5038068;28;20505;-72
2024/04/02 12:47:33;;;;;;;2.03;1.10;;;12.30;99.90;;;;;;5037952;28;20178;-69
2024/04/02 12:50:00;;;;;;;3.23;1.23;;;12.30;99.90;;;;;;5038591;28;20505;-71